Research Triangle Park, North Carolina
Current Conditions -  °F | °C
As of 5:51 PM on Monday 22 Dec 2014 (Local Time) from KRDU Reporting Station
Drizzle Drizzle  
Wind Chill: 38°   Ceiling: 400
Heat Index: 38°   Visibility: 1.5mi
Dew Point: 35°   Wind: 3mph
Humidity: 89%   Direction: NA
Pressure: 30.08"   Gusts: NA
Location:  35.9144°N, 78.8655°W
Report Text: KRDU 222251Z VRB03KT 1 1/2SM -DZ BR OVC004 03/02 A3008 RMK AO2 SFC VIS 2 SLP188 P0000 T00330017
Loading
Personal Weather Stations






























Interactive Weather Map New forecast layout! Learn more

10-Day Weather Forecast

Advertisements
Track Severe Weather on mobile